createdAt,value
2017-07-10T00:01:43.960Z,0
2017-07-10T00:11:59.176Z,0
2017-07-10T00:22:14.091Z,0
2017-07-10T00:32:29.262Z,0
2017-07-10T00:42:43.350Z,0
2017-07-10T00:52:57.850Z,0
2017-07-10T01:03:12.782Z,0
2017-07-10T01:13:27.588Z,0
2017-07-10T01:23:41.507Z,0
2017-07-10T01:33:55.352Z,0
2017-07-10T01:44:09.694Z,0
2017-07-10T01:54:25.252Z,0
2017-07-10T02:04:39.052Z,0
2017-07-10T02:14:53.869Z,0
2017-07-10T02:25:07.929Z,0
2017-07-10T02:35:22.485Z,0
2017-07-10T02:45:36.650Z,0
2017-07-10T02:55:50.647Z,12
2017-07-10T03:06:06.587Z,32
2017-07-10T03:16:20.355Z,52
2017-07-10T03:26:35.763Z,96
2017-07-10T03:36:51.154Z,276
2017-07-10T03:47:06.282Z,916
2017-07-10T03:57:21.447Z,1708
2017-07-10T04:07:35.209Z,2180
2017-07-10T04:17:49.850Z,3204
2017-07-10T04:28:05.422Z,4044
2017-07-10T04:38:20.650Z,4700
2017-07-10T04:48:35.771Z,5188
2017-07-10T04:58:49.604Z,4720
2017-07-10T05:09:04.732Z,3932
2017-07-10T05:19:19.013Z,3940
2017-07-10T05:29:33.829Z,4216
2017-07-10T05:39:48.637Z,5388
2017-07-10T05:50:03.717Z,6196
2017-07-10T06:00:17.583Z,7872
2017-07-10T06:10:31.890Z,9388
2017-07-10T06:20:47.345Z,7892
2017-07-10T06:31:02.992Z,9352
2017-07-10T06:41:17.938Z,11532
2017-07-10T06:51:33.711Z,14352
2017-07-10T07:01:48.819Z,17760
2017-07-10T07:12:04.036Z,14696
2017-07-10T07:22:19.532Z,15588
2017-07-10T07:32:34.712Z,13300
2017-07-10T07:42:49.582Z,11772
2017-07-10T07:53:04.348Z,11684
2017-07-10T08:03:18.884Z,13540
2017-07-10T08:13:33.672Z,13852
2017-07-10T08:23:47.963Z,11936
2017-07-10T08:34:03.061Z,12880
2017-07-10T08:44:17.411Z,14356
2017-07-10T08:54:32.612Z,19808
2017-07-10T09:04:47.517Z,24064
2017-07-10T09:15:01.774Z,31552
2017-07-10T09:25:17.305Z,33696
2017-07-10T09:35:32.604Z,37088
2017-07-10T09:45:47.727Z,40640
2017-07-10T09:56:03.464Z,51520
2017-07-10T10:06:18.916Z,80512
2017-07-10T10:16:33.266Z,103968
2017-07-10T10:26:48.136Z,74112
2017-07-10T10:37:03.931Z,52672
2017-07-10T10:47:18.540Z,41280
2017-07-10T10:57:33.355Z,41408
2017-07-10T11:07:48.295Z,78368
2017-07-10T11:18:02.438Z,41696
2017-07-10T11:28:16.952Z,58176
2017-07-10T11:38:32.074Z,40160
2017-07-10T11:48:47.883Z,31904
2017-07-10T11:59:02.903Z,19232
2017-07-10T12:09:17.947Z,35552
2017-07-10T12:19:33.629Z,48448
2017-07-10T12:29:48.224Z,94528
2017-07-10T12:40:03.159Z,82144
2017-07-10T12:50:17.954Z,33632
2017-07-10T13:00:32.485Z,16392
2017-07-10T13:10:48.043Z,11948
2017-07-10T13:21:03.104Z,20736
2017-07-10T13:31:18.409Z,103456
2017-07-10T13:41:32.781Z,95136
2017-07-10T13:51:47.233Z,91008
2017-07-10T14:02:02.045Z,86624
2017-07-10T14:12:16.563Z,82144
2017-07-10T14:22:31.608Z,82432
2017-07-10T14:32:47.377Z,85440
2017-07-10T14:43:01.643Z,28288
2017-07-10T14:53:16.425Z,75072
2017-07-10T15:03:30.427Z,52864
2017-07-10T15:13:44.890Z,30784
2017-07-10T15:23:59.431Z,23200
2017-07-10T15:34:14.783Z,16016
2017-07-10T15:44:29.820Z,14000
2017-07-10T15:54:44.126Z,20128
2017-07-10T16:04:59.296Z,26656
2017-07-10T16:15:14.937Z,48800
2017-07-10T16:25:29.990Z,16400
2017-07-10T16:35:45.841Z,9796
2017-07-10T16:46:01.360Z,5152
2017-07-10T16:56:16.981Z,3992
2017-07-10T17:06:31.753Z,15788
2017-07-10T17:16:47.551Z,27776
2017-07-10T17:27:01.903Z,32128
2017-07-10T17:37:16.752Z,24384
2017-07-10T17:47:31.868Z,15108
2017-07-10T17:57:47.377Z,9880
2017-07-10T18:08:03.215Z,6048
2017-07-10T18:18:18.716Z,2184
2017-07-10T18:28:33.384Z,2128
2017-07-10T18:38:49.151Z,1232
2017-07-10T18:49:04.029Z,2012
2017-07-10T18:59:19.068Z,2072
2017-07-10T19:09:33.166Z,1536
2017-07-10T19:19:47.164Z,956
2017-07-10T19:30:01.644Z,504
2017-07-10T19:40:16.504Z,176
2017-07-10T19:50:31.359Z,44
2017-07-10T20:00:45.276Z,16
2017-07-10T20:11:00.058Z,8
2017-07-10T20:21:14.626Z,4
2017-07-10T20:31:29.916Z,0
2017-07-10T20:41:43.953Z,0
2017-07-10T20:51:58.226Z,0
2017-07-10T21:02:12.034Z,0
2017-07-10T21:12:25.900Z,0
2017-07-10T21:22:41.643Z,0
2017-07-10T21:32:55.991Z,0
2017-07-10T21:43:10.058Z,0
2017-07-10T21:53:24.757Z,0
2017-07-10T22:03:38.710Z,0
2017-07-10T22:13:53.606Z,0
2017-07-10T22:24:07.427Z,0
2017-07-10T22:34:22.241Z,0
2017-07-10T22:44:37.033Z,0
2017-07-10T22:54:52.120Z,0
2017-07-10T23:05:07.693Z,0
2017-07-10T23:15:22.076Z,0
2017-07-10T23:25:36.528Z,0
2017-07-10T23:35:51.950Z,0
2017-07-10T23:46:06.816Z,0
2017-07-10T23:56:20.730Z,0
